Time,TemperatureF,DewpointF,PressureIn,WindDirection,WindDirectionDegrees,WindSpeedMPH,WindSpeedGustMPH,Humidity,HourlyPrecipIn,Conditions,Clouds,dailyrainin,SoftwareType,DateUTC
2013-01-24 00:01:00,58.7,55.0,30.25,NW,323,0.0,-999.0,87,-99.99,,,0.00,weatherlink.com 1.10,2013-01-24 05:01:00,
2013-01-24 00:16:00,58.6,55.0,30.24,NW,323,1.0,-999.0,87,-99.99,,,0.00,weatherlink.com 1.10,2013-01-24 05:16:00,
2013-01-24 00:31:00,58.6,55.0,30.23,NW,313,0.0,-999.0,87,-99.99,,,0.00,weatherlink.com 1.10,2013-01-24 05:31:00,
2013-01-24 00:46:00,58.4,55.0,30.24,NW,325,1.0,-999.0,87,-99.99,,,0.00,weatherlink.com 1.10,2013-01-24 05:46:00,
2013-01-24 01:01:00,58.3,55.0,30.24,NW,314,0.0,-999.0,87,-99.99,,,0.00,weatherlink.com 1.10,2013-01-24 06:01:00,
2013-01-24 01:16:00,58.2,55.0,30.24,NW,321,0.0,-999.0,88,-99.99,,,0.00,weatherlink.com 1.10,2013-01-24 06:16:00,
2013-01-24 01:31:00,57.9,54.0,30.24,NW,320,0.0,-999.0,88,-99.99,,,0.00,weatherlink.com 1.10,2013-01-24 06:31:00,
2013-01-24 01:46:00,57.9,55.0,30.24,NW,313,0.0,-999.0,89,-99.99,,,0.00,weatherlink.com 1.10,2013-01-24 06:46:00,
2013-01-24 02:01:00,57.8,55.0,30.24,NW,319,0.0,-999.0,89,-99.99,,,0.00,weatherlink.com 1.10,2013-01-24 07:01:00,
2013-01-24 02:16:00,57.9,54.0,30.24,NW,323,1.0,-999.0,88,-99.99,,,0.00,weatherlink.com 1.10,2013-01-24 07:16:00,
2013-01-24 02:31:00,58.4,55.0,30.23,NW,324,0.0,-999.0,88,-99.99,,,0.00,weatherlink.com 1.10,2013-01-24 07:31:00,
2013-01-24 02:46:00,58.7,55.0,30.23,NNW,331,1.0,-999.0,87,-99.99,,,0.00,weatherlink.com 1.10,2013-01-24 07:46:00,
2013-01-24 03:01:00,58.7,55.0,30.23,NNE,27,1.0,-999.0,86,-99.99,,,0.00,weatherlink.com 1.10,2013-01-24 08:01:00,
2013-01-24 03:16:00,59.0,55.0,30.22,NNW,330,1.0,-999.0,85,-99.99,,,0.00,weatherlink.com 1.10,2013-01-24 08:16:00,
2013-01-24 03:31:00,59.0,55.0,30.22,NNW,337,0.0,-999.0,85,-99.99,,,0.00,weatherlink.com 1.10,2013-01-24 08:31:00,
2013-01-24 03:46:00,58.7,54.0,30.21,NNW,333,0.0,-999.0,85,-99.99,,,0.00,weatherlink.com 1.10,2013-01-24 08:46:00,
2013-01-24 04:02:00,58.6,55.0,30.21,NW,317,1.0,-999.0,86,-99.99,,,0.00,weatherlink.com 1.10,2013-01-24 09:02:00,
2013-01-24 04:16:00,58.2,54.0,30.21,NW,317,0.0,-999.0,87,-99.99,,,0.00,weatherlink.com 1.10,2013-01-24 09:16:00,
2013-01-24 04:32:00,57.8,54.0,30.20,NW,317,0.0,-999.0,87,-99.99,,,0.00,weatherlink.com 1.10,2013-01-24 09:32:00,
2013-01-24 04:47:00,57.7,55.0,30.21,NW,317,0.0,-999.0,89,-99.99,,,0.00,weatherlink.com 1.10,2013-01-24 09:47:00,
2013-01-24 05:02:00,57.2,54.0,30.21,NW,317,0.0,-999.0,89,-99.99,,,0.00,weatherlink.com 1.10,2013-01-24 10:02:00,
2013-01-24 05:17:00,57.0,54.0,30.21,NW,313,0.0,-999.0,89,-99.99,,,0.00,weatherlink.com 1.10,2013-01-24 10:17:00,
2013-01-24 05:32:00,57.1,54.0,30.22,NNE,18,0.0,-999.0,88,-99.99,,,0.00,weatherlink.com 1.10,2013-01-24 10:32:00,
2013-01-24 05:47:00,57.3,54.0,30.22,NW,323,1.0,-999.0,87,-99.99,,,0.00,weatherlink.com 1.10,2013-01-24 10:47:00,
2013-01-24 06:02:00,57.8,54.0,30.23,NW,323,0.0,-999.0,86,-99.99,,,0.00,weatherlink.com 1.10,2013-01-24 11:02:00,
2013-01-24 06:17:00,58.1,54.0,30.23,NW,325,0.0,-999.0,85,-99.99,,,0.00,weatherlink.com 1.10,2013-01-24 11:17:00,
2013-01-24 06:32:00,58.0,54.0,30.23,NW,325,1.0,-999.0,86,-99.99,,,0.00,weatherlink.com 1.10,2013-01-24 11:32:00,
2013-01-24 06:47:00,57.7,54.0,30.23,NNW,329,0.0,-999.0,86,-99.99,,,0.00,weatherlink.com 1.10,2013-01-24 11:47:00,
2013-01-24 07:02:00,57.6,53.0,30.24,NNW,329,1.0,-999.0,85,-99.99,,,0.00,weatherlink.com 1.10,2013-01-24 12:02:00,
2013-01-24 07:17:00,57.9,52.0,30.24,NNE,14,3.0,-999.0,80,-99.99,,,0.00,weatherlink.com 1.10,2013-01-24 12:17:00,
2013-01-24 07:32:00,58.8,51.0,30.25,NNW,337,2.0,-999.0,76,-99.99,,,0.00,weatherlink.com 1.10,2013-01-24 12:32:00,
2013-01-24 07:47:00,59.7,51.0,30.26,NW,323,2.0,-999.0,73,-99.99,,,0.00,weatherlink.com 1.10,2013-01-24 12:47:00,
2013-01-24 08:02:00,60.5,50.0,30.26,North,5,1.0,-999.0,68,-99.99,,,0.00,weatherlink.com 1.10,2013-01-24 13:02:00,
2013-01-24 08:17:00,61.7,48.0,30.26,NNW,331,1.0,-999.0,62,-99.99,,,0.00,weatherlink.com 1.10,2013-01-24 13:17:00,
2013-01-24 08:32:00,62.6,48.0,30.26,NW,325,3.0,-999.0,59,-99.99,,,0.00,weatherlink.com 1.10,2013-01-24 13:32:00,
2013-01-24 08:47:00,63.5,46.0,30.27,NW,313,1.0,-999.0,53,-99.99,,,0.00,weatherlink.com 1.10,2013-01-24 13:47:00,
2013-01-24 09:02:00,64.2,47.0,30.28,NNW,329,2.0,-999.0,53,-99.99,,,0.00,weatherlink.com 1.10,2013-01-24 14:02:00,
2013-01-24 09:17:00,64.1,44.0,30.28,NW,326,2.0,-999.0,49,-99.99,,,0.00,weatherlink.com 1.10,2013-01-24 14:17:00,
2013-01-24 09:32:00,65.7,44.0,30.28,NE,47,2.0,-999.0,46,-99.99,,,0.00,weatherlink.com 1.10,2013-01-24 14:32:00,
2013-01-24 09:47:00,66.9,45.0,30.28,NNW,331,1.0,-999.0,46,-99.99,,,0.00,weatherlink.com 1.10,2013-01-24 14:47:00,
2013-01-24 10:02:00,67.7,45.0,30.28,NNW,339,2.0,-999.0,45,-99.99,,,0.00,weatherlink.com 1.10,2013-01-24 15:02:00,
2013-01-24 10:17:00,68.7,45.0,30.28,NW,313,3.0,-999.0,42,-99.99,,,0.00,weatherlink.com 1.10,2013-01-24 15:17:00,
2013-01-24 10:32:00,69.7,47.0,30.27,NNW,337,1.0,-999.0,44,-99.99,,,0.00,weatherlink.com 1.10,2013-01-24 15:32:00,
2013-01-24 10:47:00,70.8,49.0,30.27,NNW,331,1.0,-999.0,46,-99.99,,,0.00,weatherlink.com 1.10,2013-01-24 15:47:00,
2013-01-24 11:02:00,71.0,51.0,30.27,NE,55,3.0,-999.0,49,-99.99,,,0.00,weatherlink.com 1.10,2013-01-24 16:02:00,
2013-01-24 11:17:00,71.6,53.0,30.28,NE,40,3.0,-999.0,53,-99.99,,,0.00,weatherlink.com 1.10,2013-01-24 16:17:00,
2013-01-24 11:32:00,72.5,53.0,30.27,North,360,1.0,-999.0,50,-99.99,,,0.00,weatherlink.com 1.10,2013-01-24 16:32:00,
2013-01-24 11:47:00,72.6,53.0,30.27,NW,304,2.0,-999.0,50,-99.99,,,0.00,weatherlink.com 1.10,2013-01-24 16:47:00,
2013-01-24 12:03:00,72.8,53.0,30.26,NNW,344,1.0,-999.0,50,-99.99,,,0.00,weatherlink.com 1.10,2013-01-24 17:03:00,
2013-01-24 12:18:00,73.4,54.0,30.25,West,281,0.0,-999.0,50,-99.99,,,0.00,weatherlink.com 1.10,2013-01-24 17:18:00,
2013-01-24 12:33:00,73.4,52.0,30.24,NNE,26,3.0,-999.0,48,-99.99,,,0.00,weatherlink.com 1.10,2013-01-24 17:33:00,
2013-01-24 12:48:00,74.0,54.0,30.23,NNW,329,2.0,-999.0,49,-99.99,,,0.00,weatherlink.com 1.10,2013-01-24 17:48:00,
2013-01-24 13:03:00,74.0,54.0,30.23,NNW,348,2.0,-999.0,49,-99.99,,,0.00,weatherlink.com 1.10,2013-01-24 18:03:00,
2013-01-24 13:18:00,74.5,53.0,30.22,NW,313,1.0,-999.0,48,-99.99,,,0.00,weatherlink.com 1.10,2013-01-24 18:18:00,
2013-01-24 13:33:00,74.4,54.0,30.22,West,260,1.0,-999.0,49,-99.99,,,0.00,weatherlink.com 1.10,2013-01-24 18:33:00,
2013-01-24 13:48:00,75.0,55.0,30.21,NE,35,1.0,-999.0,50,-99.99,,,0.00,weatherlink.com 1.10,2013-01-24 18:48:00,
2013-01-24 14:03:00,74.9,54.0,30.20,NNW,332,0.0,-999.0,48,-99.99,,,0.00,weatherlink.com 1.10,2013-01-24 19:03:00,
2013-01-24 14:18:00,75.6,54.0,30.19,NNW,329,0.0,-999.0,48,-99.99,,,0.00,weatherlink.com 1.10,2013-01-24 19:18:00,
2013-01-24 14:33:00,75.8,54.0,30.19,West,271,4.0,-999.0,47,-99.99,,,0.00,weatherlink.com 1.10,2013-01-24 19:33:00,
2013-01-24 14:48:00,76.6,55.0,30.19,NNE,30,1.0,-999.0,47,-99.99,,,0.00,weatherlink.com 1.10,2013-01-24 19:48:00,
2013-01-24 15:03:00,76.8,54.0,30.19,NW,314,3.0,-999.0,45,-99.99,,,0.00,weatherlink.com 1.10,2013-01-24 20:03:00,
2013-01-24 15:18:00,75.3,53.0,30.19,NNW,334,0.0,-999.0,46,-99.99,,,0.00,weatherlink.com 1.10,2013-01-24 20:18:00,
2013-01-24 15:33:00,74.7,55.0,30.19,SE,142,4.0,-999.0,50,-99.99,,,0.00,weatherlink.com 1.10,2013-01-24 20:33:00,
2013-01-24 15:48:00,73.1,54.0,30.19,ENE,62,3.0,-999.0,52,-99.99,,,0.00,weatherlink.com 1.10,2013-01-24 20:48:00,
2013-01-24 16:03:00,72.4,54.0,30.19,NE,55,4.0,-999.0,52,-99.99,,,0.00,weatherlink.com 1.10,2013-01-24 21:03:00,
2013-01-24 16:18:00,71.8,54.0,30.19,ENE,65,4.0,-999.0,54,-99.99,,,0.00,weatherlink.com 1.10,2013-01-24 21:18:00,
2013-01-24 16:33:00,71.6,54.0,30.20,NE,47,4.0,-999.0,55,-99.99,,,0.00,weatherlink.com 1.10,2013-01-24 21:33:00,
2013-01-24 16:48:00,71.7,55.0,30.20,ENE,63,4.0,-999.0,55,-99.99,,,0.00,weatherlink.com 1.10,2013-01-24 21:48:00,
2013-01-24 17:03:00,71.2,54.0,30.21,ENE,73,1.0,-999.0,55,-99.99,,,0.00,weatherlink.com 1.10,2013-01-24 22:03:00,
2013-01-24 17:18:00,70.7,54.0,30.21,ENE,66,2.0,-999.0,55,-99.99,,,0.00,weatherlink.com 1.10,2013-01-24 22:18:00,
2013-01-24 17:33:00,69.9,52.0,30.22,NE,49,0.0,-999.0,53,-99.99,,,0.00,weatherlink.com 1.10,2013-01-24 22:33:00,
2013-01-24 17:48:00,69.1,50.0,30.22,NE,47,1.0,-999.0,51,-99.99,,,0.00,weatherlink.com 1.10,2013-01-24 22:48:00,
2013-01-24 18:03:00,68.5,50.0,30.22,NE,49,0.0,-999.0,52,-99.99,,,0.00,weatherlink.com 1.10,2013-01-24 23:03:00,
2013-01-24 18:18:00,67.8,51.0,30.22,NE,34,2.0,-999.0,55,-99.99,,,0.00,weatherlink.com 1.10,2013-01-24 23:18:00,
2013-01-24 18:33:00,67.1,53.0,30.22,NNW,344,1.0,-999.0,60,-99.99,,,0.00,weatherlink.com 1.10,2013-01-24 23:33:00,
2013-01-24 18:48:00,66.4,53.0,30.23,NE,43,0.0,-999.0,63,-99.99,,,0.00,weatherlink.com 1.10,2013-01-24 23:48:00,
2013-01-24 19:03:00,65.6,53.0,30.23,NE,40,0.0,-999.0,65,-99.99,,,0.00,weatherlink.com 1.10,2013-01-25 00:03:00,
2013-01-24 19:18:00,64.7,54.0,30.23,NE,40,0.0,-999.0,68,-99.99,,,0.00,weatherlink.com 1.10,2013-01-25 00:18:00,
2013-01-24 19:33:00,63.9,54.0,30.23,NE,40,0.0,-999.0,70,-99.99,,,0.00,weatherlink.com 1.10,2013-01-25 00:33:00,
2013-01-24 19:48:00,63.4,54.0,30.23,NE,39,0.0,-999.0,71,-99.99,,,0.00,weatherlink.com 1.10,2013-01-25 00:48:00,
2013-01-24 20:03:00,62.8,54.0,30.24,NNE,28,0.0,-999.0,73,-99.99,,,0.00,weatherlink.com 1.10,2013-01-25 01:03:00,
2013-01-24 20:18:00,62.4,54.0,30.24,NNW,327,1.0,-999.0,75,-99.99,,,0.00,weatherlink.com 1.10,2013-01-25 01:18:00,
2013-01-24 20:33:00,62.1,55.0,30.25,NW,318,0.0,-999.0,77,-99.99,,,0.00,weatherlink.com 1.10,2013-01-25 01:33:00,
2013-01-24 20:48:00,61.9,55.0,30.25,NW,326,0.0,-999.0,77,-99.99,,,0.00,weatherlink.com 1.10,2013-01-25 01:48:00,
2013-01-24 21:03:00,61.7,55.0,30.25,NW,323,0.0,-999.0,78,-99.99,,,0.00,weatherlink.com 1.10,2013-01-25 02:03:00,
2013-01-24 21:18:00,61.6,55.0,30.25,NW,323,0.0,-999.0,78,-99.99,,,0.00,weatherlink.com 1.10,2013-01-25 02:18:00,
2013-01-24 21:33:00,61.4,55.0,30.25,NW,323,0.0,-999.0,78,-99.99,,,0.00,weatherlink.com 1.10,2013-01-25 02:33:00,
2013-01-24 21:48:00,61.3,54.0,30.25,NNW,329,0.0,-999.0,78,-99.99,,,0.00,weatherlink.com 1.10,2013-01-25 02:48:00,
2013-01-24 22:03:00,61.2,55.0,30.26,NW,320,0.0,-999.0,79,-99.99,,,0.00,weatherlink.com 1.10,2013-01-25 03:03:00,
2013-01-24 22:18:00,60.8,55.0,30.26,NW,318,0.0,-999.0,80,-99.99,,,0.00,weatherlink.com 1.10,2013-01-25 03:18:00,
2013-01-24 22:33:00,60.5,55.0,30.26,NW,309,0.0,-999.0,81,-99.99,,,0.00,weatherlink.com 1.10,2013-01-25 03:33:00,
2013-01-24 22:48:00,60.4,55.0,30.25,NW,314,1.0,-999.0,81,-99.99,,,0.00,weatherlink.com 1.10,2013-01-25 03:48:00,
2013-01-24 23:03:00,60.3,54.0,30.25,NW,321,1.0,-999.0,81,-99.99,,,0.00,weatherlink.com 1.10,2013-01-25 04:03:00,
2013-01-24 23:18:00,60.0,54.0,30.25,NW,323,1.0,-999.0,81,-99.99,,,0.00,weatherlink.com 1.10,2013-01-25 04:18:00,
2013-01-24 23:33:00,59.9,54.0,30.24,NW,313,1.0,-999.0,82,-99.99,,,0.00,weatherlink.com 1.10,2013-01-25 04:33:00,
2013-01-24 23:48:00,59.7,54.0,30.25,NW,316,0.0,-999.0,82,-99.99,,,0.00,weatherlink.com 1.10,2013-01-25 04:48:00,